sensor_id;sensor_type;location;lat;lon;timestamp;P1;durP1;ratioP1;P2;durP2;ratioP2
35891;SDS011;21993;42.672;23.296;2022-09-21T00:00:42;2.80;;;2.60;;
35891;SDS011;21993;42.672;23.296;2022-09-21T00:03:08;4.67;;;2.30;;
35891;SDS011;21993;42.672;23.296;2022-09-21T00:05:34;2.30;;;2.20;;
35891;SDS011;21993;42.672;23.296;2022-09-21T00:08:00;5.47;;;2.90;;
35891;SDS011;21993;42.672;23.296;2022-09-21T00:10:27;2.60;;;2.40;;
35891;SDS011;21993;42.672;23.296;2022-09-21T00:12:53;2.90;;;2.43;;
35891;SDS011;21993;42.672;23.296;2022-09-21T00:15:20;2.87;;;2.20;;
35891;SDS011;21993;42.672;23.296;2022-09-21T00:17:45;2.50;;;2.30;;
35891;SDS011;21993;42.672;23.296;2022-09-21T00:20:13;2.43;;;2.10;;
35891;SDS011;21993;42.672;23.296;2022-09-21T00:22:40;2.77;;;2.57;;
35891;SDS011;21993;42.672;23.296;2022-09-21T00:25:06;3.20;;;2.40;;
35891;SDS011;21993;42.672;23.296;2022-09-21T00:27:33;2.87;;;2.67;;
35891;SDS011;21993;42.672;23.296;2022-09-21T00:29:59;3.80;;;2.90;;
35891;SDS011;21993;42.672;23.296;2022-09-21T00:32:27;4.43;;;3.47;;
35891;SDS011;21993;42.672;23.296;2022-09-21T00:34:55;3.50;;;3.20;;
35891;SDS011;21993;42.672;23.296;2022-09-21T00:37:21;4.20;;;3.80;;
35891;SDS011;21993;42.672;23.296;2022-09-21T00:39:47;5.10;;;4.13;;
35891;SDS011;21993;42.672;23.296;2022-09-21T00:42:17;5.27;;;4.17;;
35891;SDS011;21993;42.672;23.296;2022-09-21T00:44:43;6.40;;;4.27;;
35891;SDS011;21993;42.672;23.296;2022-09-21T00:47:09;4.90;;;3.90;;
35891;SDS011;21993;42.672;23.296;2022-09-21T00:49:37;5.70;;;4.47;;
35891;SDS011;21993;42.672;23.296;2022-09-21T00:52:05;6.03;;;4.77;;
35891;SDS011;21993;42.672;23.296;2022-09-21T00:54:36;6.47;;;4.73;;
35891;SDS011;21993;42.672;23.296;2022-09-21T00:57:08;5.10;;;4.70;;
35891;SDS011;21993;42.672;23.296;2022-09-21T00:59:35;6.73;;;4.50;;
35891;SDS011;21993;42.672;23.296;2022-09-21T01:02:03;4.87;;;4.37;;
35891;SDS011;21993;42.672;23.296;2022-09-21T01:04:30;5.20;;;4.40;;
35891;SDS011;21993;42.672;23.296;2022-09-21T01:06:56;5.00;;;4.27;;
35891;SDS011;21993;42.672;23.296;2022-09-21T01:09:26;5.47;;;4.77;;
35891;SDS011;21993;42.672;23.296;2022-09-21T01:18:10;5.03;;;4.53;;
35891;SDS011;21993;42.672;23.296;2022-09-21T01:28:52;5.70;;;3.50;;
35891;SDS011;21993;42.672;23.296;2022-09-21T01:34:35;3.93;;;3.63;;
35891;SDS011;21993;42.672;23.296;2022-09-21T01:37:08;4.27;;;3.73;;
35891;SDS011;21993;42.672;23.296;2022-09-21T01:39:38;7.13;;;3.53;;
35891;SDS011;21993;42.672;23.296;2022-09-21T01:42:09;4.13;;;3.73;;
35891;SDS011;21993;42.672;23.296;2022-09-21T01:44:37;5.50;;;3.63;;
35891;SDS011;21993;42.672;23.296;2022-09-21T01:47:05;4.50;;;3.87;;
35891;SDS011;21993;42.672;23.296;2022-09-21T01:49:38;4.13;;;3.37;;
35891;SDS011;21993;42.672;23.296;2022-09-21T01:52:30;5.90;;;4.07;;
35891;SDS011;21993;42.672;23.296;2022-09-21T01:55:09;5.37;;;3.70;;
35891;SDS011;21993;42.672;23.296;2022-09-21T02:00:39;5.43;;;4.07;;
35891;SDS011;21993;42.672;23.296;2022-09-21T02:03:11;4.40;;;3.63;;
35891;SDS011;21993;42.672;23.296;2022-09-21T02:05:45;3.47;;;3.17;;
35891;SDS011;21993;42.672;23.296;2022-09-21T02:08:11;3.67;;;3.30;;
35891;SDS011;21993;42.672;23.296;2022-09-21T02:10:39;4.30;;;3.17;;
35891;SDS011;21993;42.672;23.296;2022-09-21T02:13:09;3.60;;;3.20;;
35891;SDS011;21993;42.672;23.296;2022-09-21T02:15:46;4.53;;;3.40;;
35891;SDS011;21993;42.672;23.296;2022-09-21T02:18:18;3.60;;;3.30;;
35891;SDS011;21993;42.672;23.296;2022-09-21T02:20:55;3.73;;;3.30;;
35891;SDS011;21993;42.672;23.296;2022-09-21T02:23:28;3.60;;;3.30;;
35891;SDS011;21993;42.672;23.296;2022-09-21T02:34:00;3.80;;;3.40;;
35891;SDS011;21993;42.672;23.296;2022-09-21T02:39:09;4.80;;;3.40;;
35891;SDS011;21993;42.672;23.296;2022-09-21T02:44:40;5.37;;;3.20;;
35891;SDS011;21993;42.672;23.296;2022-09-21T02:50:05;3.57;;;3.27;;
35891;SDS011;21993;42.672;23.296;2022-09-21T02:52:34;3.47;;;3.17;;
35891;SDS011;21993;42.672;23.296;2022-09-21T02:55:05;4.37;;;3.33;;
35891;SDS011;21993;42.672;23.296;2022-09-21T02:57:31;3.67;;;3.27;;
35891;SDS011;21993;42.672;23.296;2022-09-21T02:59:57;3.83;;;3.43;;
35891;SDS011;21993;42.672;23.296;2022-09-21T03:02:22;3.53;;;3.20;;
35891;SDS011;21993;42.672;23.296;2022-09-21T03:04:47;4.67;;;3.07;;
35891;SDS011;21993;42.672;23.296;2022-09-21T03:07:17;4.13;;;3.03;;
35891;SDS011;21993;42.672;23.296;2022-09-21T03:09:42;4.00;;;3.60;;
35891;SDS011;21993;42.672;23.296;2022-09-21T03:12:08;3.50;;;3.10;;
35891;SDS011;21993;42.672;23.296;2022-09-21T03:14:33;3.30;;;2.90;;
35891;SDS011;21993;42.672;23.296;2022-09-21T03:16:59;4.50;;;3.20;;
35891;SDS011;21993;42.672;23.296;2022-09-21T03:19:24;3.73;;;3.43;;
35891;SDS011;21993;42.672;23.296;2022-09-21T03:21:50;4.23;;;3.83;;
35891;SDS011;21993;42.672;23.296;2022-09-21T03:24:16;3.43;;;3.13;;
35891;SDS011;21993;42.672;23.296;2022-09-21T03:27:02;4.10;;;3.40;;
35891;SDS011;21993;42.672;23.296;2022-09-21T03:29:27;4.93;;;3.80;;
35891;SDS011;21993;42.672;23.296;2022-09-21T03:31:52;3.90;;;3.53;;
35891;SDS011;21993;42.672;23.296;2022-09-21T03:34:20;7.50;;;3.53;;
35891;SDS011;21993;42.672;23.296;2022-09-21T03:36:45;3.63;;;3.30;;
35891;SDS011;21993;42.672;23.296;2022-09-21T03:39:12;3.70;;;3.40;;
35891;SDS011;21993;42.672;23.296;2022-09-21T03:41:38;4.03;;;3.63;;
35891;SDS011;21993;42.672;23.296;2022-09-21T03:44:03;4.40;;;4.00;;
35891;SDS011;21993;42.672;23.296;2022-09-21T03:46:29;6.43;;;3.87;;
35891;SDS011;21993;42.672;23.296;2022-09-21T03:48:54;5.27;;;3.90;;
35891;SDS011;21993;42.672;23.296;2022-09-21T03:51:20;5.60;;;3.83;;
35891;SDS011;21993;42.672;23.296;2022-09-21T03:53:45;5.93;;;3.70;;
35891;SDS011;21993;42.672;23.296;2022-09-21T03:56:10;4.60;;;3.43;;
35891;SDS011;21993;42.672;23.296;2022-09-21T03:58:36;3.87;;;3.50;;
35891;SDS011;21993;42.672;23.296;2022-09-21T04:01:01;8.47;;;3.53;;
35891;SDS011;21993;42.672;23.296;2022-09-21T04:03:27;6.13;;;3.80;;
35891;SDS011;21993;42.672;23.296;2022-09-21T04:05:54;6.67;;;4.17;;
35891;SDS011;21993;42.672;23.296;2022-09-21T04:08:19;7.03;;;3.87;;
35891;SDS011;21993;42.672;23.296;2022-09-21T04:10:45;6.47;;;4.07;;
35891;SDS011;21993;42.672;23.296;2022-09-21T04:13:10;5.60;;;4.17;;
35891;SDS011;21993;42.672;23.296;2022-09-21T04:15:37;8.07;;;4.63;;
35891;SDS011;21993;42.672;23.296;2022-09-21T04:18:03;25.63;;;5.77;;
35891;SDS011;21993;42.672;23.296;2022-09-21T04:20:29;6.33;;;3.97;;
35891;SDS011;21993;42.672;23.296;2022-09-21T04:22:55;5.03;;;3.90;;
35891;SDS011;21993;42.672;23.296;2022-09-21T04:25:20;4.40;;;3.63;;
35891;SDS011;21993;42.672;23.296;2022-09-21T04:27:46;8.47;;;4.27;;
35891;SDS011;21993;42.672;23.296;2022-09-21T04:30:12;14.87;;;5.73;;
35891;SDS011;21993;42.672;23.296;2022-09-21T04:32:38;5.47;;;4.33;;
35891;SDS011;21993;42.672;23.296;2022-09-21T04:35:04;10.27;;;5.03;;
35891;SDS011;21993;42.672;23.296;2022-09-21T04:37:30;7.80;;;4.07;;
35891;SDS011;21993;42.672;23.296;2022-09-21T04:39:55;5.93;;;3.93;;
35891;SDS011;21993;42.672;23.296;2022-09-21T04:42:21;4.57;;;3.07;;
35891;SDS011;21993;42.672;23.296;2022-09-21T04:44:47;5.10;;;3.30;;
35891;SDS011;21993;42.672;23.296;2022-09-21T04:47:12;8.93;;;3.50;;
35891;SDS011;21993;42.672;23.296;2022-09-21T04:49:38;4.83;;;3.80;;
35891;SDS011;21993;42.672;23.296;2022-09-21T04:52:04;4.83;;;3.60;;
35891;SDS011;21993;42.672;23.296;2022-09-21T04:54:30;4.67;;;3.20;;
35891;SDS011;21993;42.672;23.296;2022-09-21T04:56:55;4.63;;;2.80;;
35891;SDS011;21993;42.672;23.296;2022-09-21T04:59:21;6.13;;;2.70;;
35891;SDS011;21993;42.672;23.296;2022-09-21T05:01:47;4.07;;;3.20;;
35891;SDS011;21993;42.672;23.296;2022-09-21T05:04:12;3.70;;;2.80;;
35891;SDS011;21993;42.672;23.296;2022-09-21T05:06:38;5.87;;;2.83;;
35891;SDS011;21993;42.672;23.296;2022-09-21T05:09:03;2.43;;;2.20;;
35891;SDS011;21993;42.672;23.296;2022-09-21T05:11:47;6.40;;;2.83;;
35891;SDS011;21993;42.672;23.296;2022-09-21T05:14:12;3.57;;;2.83;;
35891;SDS011;21993;42.672;23.296;2022-09-21T05:16:38;8.47;;;3.23;;
35891;SDS011;21993;42.672;23.296;2022-09-21T05:19:03;8.27;;;3.37;;
35891;SDS011;21993;42.672;23.296;2022-09-21T05:21:29;4.60;;;3.63;;
35891;SDS011;21993;42.672;23.296;2022-09-21T05:23:57;8.67;;;3.40;;
35891;SDS011;21993;42.672;23.296;2022-09-21T05:26:23;13.77;;;4.03;;
35891;SDS011;21993;42.672;23.296;2022-09-21T05:28:48;7.20;;;3.87;;
35891;SDS011;21993;42.672;23.296;2022-09-21T05:40:03;6.20;;;5.00;;
35891;SDS011;21993;42.672;23.296;2022-09-21T05:42:30;6.53;;;4.63;;
35891;SDS011;21993;42.672;23.296;2022-09-21T05:44:56;7.03;;;4.23;;
35891;SDS011;21993;42.672;23.296;2022-09-21T05:47:28;10.83;;;4.37;;
35891;SDS011;21993;42.672;23.296;2022-09-21T05:50:16;12.53;;;4.03;;
35891;SDS011;21993;42.672;23.296;2022-09-21T06:03:40;5.27;;;4.13;;
35891;SDS011;21993;42.672;23.296;2022-09-21T06:06:06;6.83;;;4.70;;
35891;SDS011;21993;42.672;23.296;2022-09-21T06:08:33;8.93;;;4.57;;
35891;SDS011;21993;42.672;23.296;2022-09-21T06:10:58;7.83;;;4.20;;
35891;SDS011;21993;42.672;23.296;2022-09-21T06:13:24;4.33;;;3.93;;
35891;SDS011;21993;42.672;23.296;2022-09-21T06:15:50;6.97;;;4.47;;
35891;SDS011;21993;42.672;23.296;2022-09-21T06:18:16;9.03;;;4.87;;
35891;SDS011;21993;42.672;23.296;2022-09-21T06:20:41;5.90;;;4.80;;
35891;SDS011;21993;42.672;23.296;2022-09-21T06:23:08;7.17;;;4.40;;
35891;SDS011;21993;42.672;23.296;2022-09-21T06:25:35;7.43;;;4.33;;
35891;SDS011;21993;42.672;23.296;2022-09-21T06:28:08;8.67;;;4.10;;
35891;SDS011;21993;42.672;23.296;2022-09-21T06:30:35;7.80;;;3.63;;
35891;SDS011;21993;42.672;23.296;2022-09-21T06:33:02;7.77;;;4.10;;
35891;SDS011;21993;42.672;23.296;2022-09-21T06:35:29;5.10;;;4.50;;
35891;SDS011;21993;42.672;23.296;2022-09-21T06:38:03;8.50;;;4.93;;
35891;SDS011;21993;42.672;23.296;2022-09-21T06:40:30;7.03;;;4.57;;
35891;SDS011;21993;42.672;23.296;2022-09-21T06:42:57;10.33;;;4.70;;
35891;SDS011;21993;42.672;23.296;2022-09-21T06:45:24;5.67;;;3.80;;
35891;SDS011;21993;42.672;23.296;2022-09-21T06:47:50;7.90;;;3.77;;
35891;SDS011;21993;42.672;23.296;2022-09-21T06:50:16;5.90;;;3.43;;
35891;SDS011;21993;42.672;23.296;2022-09-21T06:52:41;7.57;;;3.57;;
35891;SDS011;21993;42.672;23.296;2022-09-21T06:55:07;6.13;;;3.40;;
35891;SDS011;21993;42.672;23.296;2022-09-21T06:57:34;6.57;;;3.90;;
35891;SDS011;21993;42.672;23.296;2022-09-21T07:00:00;6.67;;;3.03;;
35891;SDS011;21993;42.672;23.296;2022-09-21T07:02:26;6.60;;;2.90;;
35891;SDS011;21993;42.672;23.296;2022-09-21T07:04:51;6.20;;;3.00;;
35891;SDS011;21993;42.672;23.296;2022-09-21T07:07:17;3.23;;;2.60;;
35891;SDS011;21993;42.672;23.296;2022-09-21T07:09:43;5.60;;;2.70;;
35891;SDS011;21993;42.672;23.296;2022-09-21T07:12:09;5.43;;;2.57;;
35891;SDS011;21993;42.672;23.296;2022-09-21T07:14:35;3.87;;;2.03;;
35891;SDS011;21993;42.672;23.296;2022-09-21T07:17:00;5.00;;;2.70;;
35891;SDS011;21993;42.672;23.296;2022-09-21T07:19:26;4.03;;;2.30;;
35891;SDS011;21993;42.672;23.296;2022-09-21T07:21:53;2.53;;;2.27;;
35891;SDS011;21993;42.672;23.296;2022-09-21T07:24:19;4.70;;;2.70;;
35891;SDS011;21993;42.672;23.296;2022-09-21T07:26:44;6.63;;;2.80;;
35891;SDS011;21993;42.672;23.296;2022-09-21T07:29:09;7.67;;;3.40;;
35891;SDS011;21993;42.672;23.296;2022-09-21T07:31:35;7.07;;;3.10;;
35891;SDS011;21993;42.672;23.296;2022-09-21T07:34:07;5.17;;;2.73;;
35891;SDS011;21993;42.672;23.296;2022-09-21T07:36:32;6.70;;;2.57;;
35891;SDS011;21993;42.672;23.296;2022-09-21T07:38:58;5.80;;;2.80;;
35891;SDS011;21993;42.672;23.296;2022-09-21T07:41:23;2.93;;;2.73;;
35891;SDS011;21993;42.672;23.296;2022-09-21T07:43:49;3.70;;;2.63;;
35891;SDS011;21993;42.672;23.296;2022-09-21T07:46:14;4.20;;;2.93;;
35891;SDS011;21993;42.672;23.296;2022-09-21T07:48:40;4.13;;;2.87;;
35891;SDS011;21993;42.672;23.296;2022-09-21T07:51:07;4.20;;;2.90;;
35891;SDS011;21993;42.672;23.296;2022-09-21T07:53:35;2.70;;;2.47;;
35891;SDS011;21993;42.672;23.296;2022-09-21T07:56:06;4.53;;;3.00;;
35891;SDS011;21993;42.672;23.296;2022-09-21T07:58:39;4.17;;;2.40;;
35891;SDS011;21993;42.672;23.296;2022-09-21T08:01:24;4.20;;;2.50;;
35891;SDS011;21993;42.672;23.296;2022-09-21T08:03:51;3.60;;;2.60;;
35891;SDS011;21993;42.672;23.296;2022-09-21T08:06:17;2.60;;;2.40;;
35891;SDS011;21993;42.672;23.296;2022-09-21T08:08:44;5.80;;;2.67;;
35891;SDS011;21993;42.672;23.296;2022-09-21T08:11:11;2.80;;;2.13;;
35891;SDS011;21993;42.672;23.296;2022-09-21T08:13:37;2.90;;;2.37;;
35891;SDS011;21993;42.672;23.296;2022-09-21T08:16:03;3.70;;;2.87;;
35891;SDS011;21993;42.672;23.296;2022-09-21T08:18:28;4.40;;;2.70;;
35891;SDS011;21993;42.672;23.296;2022-09-21T08:20:55;3.73;;;2.90;;
35891;SDS011;21993;42.672;23.296;2022-09-21T08:23:22;4.33;;;3.20;;
35891;SDS011;21993;42.672;23.296;2022-09-21T08:25:48;3.20;;;2.90;;
35891;SDS011;21993;42.672;23.296;2022-09-21T08:28:14;4.57;;;2.73;;
35891;SDS011;21993;42.672;23.296;2022-09-21T08:30:40;3.93;;;2.43;;
35891;SDS011;21993;42.672;23.296;2022-09-21T08:33:06;7.87;;;2.63;;
35891;SDS011;21993;42.672;23.296;2022-09-21T08:35:33;7.47;;;2.50;;
35891;SDS011;21993;42.672;23.296;2022-09-21T08:38:00;4.50;;;2.43;;
35891;SDS011;21993;42.672;23.296;2022-09-21T08:40:26;2.70;;;2.30;;
35891;SDS011;21993;42.672;23.296;2022-09-21T08:42:54;2.50;;;2.30;;
35891;SDS011;21993;42.672;23.296;2022-09-21T08:45:25;4.33;;;2.60;;
35891;SDS011;21993;42.672;23.296;2022-09-21T08:47:58;3.37;;;2.13;;
35891;SDS011;21993;42.672;23.296;2022-09-21T08:50:40;5.73;;;2.60;;
35891;SDS011;21993;42.672;23.296;2022-09-21T08:53:14;9.57;;;3.17;;
35891;SDS011;21993;42.672;23.296;2022-09-21T08:55:43;3.53;;;2.63;;
35891;SDS011;21993;42.672;23.296;2022-09-21T08:58:26;3.43;;;2.47;;
35891;SDS011;21993;42.672;23.296;2022-09-21T09:04:00;2.27;;;2.10;;
35891;SDS011;21993;42.672;23.296;2022-09-21T09:09:43;3.73;;;2.17;;
35891;SDS011;21993;42.672;23.296;2022-09-21T09:17:53;1.90;;;1.80;;
35891;SDS011;21993;42.672;23.296;2022-09-21T09:20:25;3.97;;;2.50;;
35891;SDS011;21993;42.672;23.296;2022-09-21T09:25:39;6.77;;;2.07;;
35891;SDS011;21993;42.672;23.296;2022-09-21T09:28:20;5.77;;;2.17;;
35891;SDS011;21993;42.672;23.296;2022-09-21T09:31:38;1.93;;;1.83;;
35891;SDS011;21993;42.672;23.296;2022-09-21T09:34:11;2.53;;;2.30;;
35891;SDS011;21993;42.672;23.296;2022-09-21T09:36:59;5.40;;;2.03;;
35891;SDS011;21993;42.672;23.296;2022-09-21T09:39:35;1.80;;;1.70;;
35891;SDS011;21993;42.672;23.296;2022-09-21T09:47:20;2.50;;;2.30;;
35891;SDS011;21993;42.672;23.296;2022-09-21T09:50:09;2.87;;;2.10;;
35891;SDS011;21993;42.672;23.296;2022-09-21T09:52:43;2.27;;;2.07;;
35891;SDS011;21993;42.672;23.296;2022-09-21T09:55:15;2.77;;;1.90;;
35891;SDS011;21993;42.672;23.296;2022-09-21T09:57:44;1.90;;;1.77;;
35891;SDS011;21993;42.672;23.296;2022-09-21T10:00:17;2.00;;;1.80;;
35891;SDS011;21993;42.672;23.296;2022-09-21T10:02:46;1.80;;;1.70;;
35891;SDS011;21993;42.672;23.296;2022-09-21T10:05:21;1.80;;;1.70;;
35891;SDS011;21993;42.672;23.296;2022-09-21T10:07:53;3.50;;;1.80;;
35891;SDS011;21993;42.672;23.296;2022-09-21T10:12:54;2.20;;;2.00;;
35891;SDS011;21993;42.672;23.296;2022-09-21T10:15:24;5.20;;;2.00;;
35891;SDS011;21993;42.672;23.296;2022-09-21T10:20:36;1.80;;;1.70;;
35891;SDS011;21993;42.672;23.296;2022-09-21T10:23:01;2.10;;;1.87;;
35891;SDS011;21993;42.672;23.296;2022-09-21T10:25:29;3.10;;;1.60;;
35891;SDS011;21993;42.672;23.296;2022-09-21T10:27:55;2.07;;;1.60;;
35891;SDS011;21993;42.672;23.296;2022-09-21T10:30:34;2.30;;;1.90;;
35891;SDS011;21993;42.672;23.296;2022-09-21T10:33:02;1.67;;;1.10;;
35891;SDS011;21993;42.672;23.296;2022-09-21T10:35:49;1.80;;;1.27;;
35891;SDS011;21993;42.672;23.296;2022-09-21T10:38:16;1.50;;;1.40;;
35891;SDS011;21993;42.672;23.296;2022-09-21T10:40:43;1.47;;;1.37;;
35891;SDS011;21993;42.672;23.296;2022-09-21T10:46:07;1.50;;;1.40;;
35891;SDS011;21993;42.672;23.296;2022-09-21T10:48:32;6.07;;;1.50;;
35891;SDS011;21993;42.672;23.296;2022-09-21T10:50:58;2.17;;;1.53;;
35891;SDS011;21993;42.672;23.296;2022-09-21T10:53:31;2.23;;;2.00;;
35891;SDS011;21993;42.672;23.296;2022-09-21T10:56:00;2.00;;;1.80;;
35891;SDS011;21993;42.672;23.296;2022-09-21T10:58:41;2.10;;;2.00;;
35891;SDS011;21993;42.672;23.296;2022-09-21T11:01:44;2.13;;;1.93;;
35891;SDS011;21993;42.672;23.296;2022-09-21T11:04:17;2.00;;;1.70;;
35891;SDS011;21993;42.672;23.296;2022-09-21T11:06:44;1.63;;;1.53;;
35891;SDS011;21993;42.672;23.296;2022-09-21T11:20:44;3.57;;;1.87;;
35891;SDS011;21993;42.672;23.296;2022-09-21T11:23:25;1.23;;;1.23;;
35891;SDS011;21993;42.672;23.296;2022-09-21T11:26:34;2.33;;;1.30;;
35891;SDS011;21993;42.672;23.296;2022-09-21T11:29:08;2.17;;;1.57;;
35891;SDS011;21993;42.672;23.296;2022-09-21T11:31:47;2.00;;;1.80;;
35891;SDS011;21993;42.672;23.296;2022-09-21T11:54:02;6.47;;;2.03;;
35891;SDS011;21993;42.672;23.296;2022-09-21T11:56:55;3.17;;;1.40;;
35891;SDS011;21993;42.672;23.296;2022-09-21T11:59:32;1.73;;;1.37;;
35891;SDS011;21993;42.672;23.296;2022-09-21T12:04:51;4.20;;;1.50;;
35891;SDS011;21993;42.672;23.296;2022-09-21T12:21:35;4.23;;;3.57;;
35891;SDS011;21993;42.672;23.296;2022-09-21T12:24:13;1.70;;;1.60;;
35891;SDS011;21993;42.672;23.296;2022-09-21T12:26:52;2.00;;;1.40;;
35891;SDS011;21993;42.672;23.296;2022-09-21T12:29:30;3.90;;;2.20;;
35891;SDS011;21993;42.672;23.296;2022-09-21T12:34:29;2.30;;;2.10;;
35891;SDS011;21993;42.672;23.296;2022-09-21T12:47:54;2.97;;;1.90;;
35891;SDS011;21993;42.672;23.296;2022-09-21T12:53:18;4.00;;;2.53;;
35891;SDS011;21993;42.672;23.296;2022-09-21T12:56:02;4.43;;;2.23;;
35891;SDS011;21993;42.672;23.296;2022-09-21T13:09:40;2.23;;;1.70;;
35891;SDS011;21993;42.672;23.296;2022-09-21T13:12:14;3.50;;;1.63;;
35891;SDS011;21993;42.672;23.296;2022-09-21T13:14:45;1.37;;;1.20;;
35891;SDS011;21993;42.672;23.296;2022-09-21T13:17:22;1.80;;;1.67;;
35891;SDS011;21993;42.672;23.296;2022-09-21T13:19:55;2.10;;;1.90;;
35891;SDS011;21993;42.672;23.296;2022-09-21T13:22:25;2.00;;;1.40;;
35891;SDS011;21993;42.672;23.296;2022-09-21T13:25:04;1.87;;;1.77;;
35891;SDS011;21993;42.672;23.296;2022-09-21T13:33:31;3.77;;;1.73;;
35891;SDS011;21993;42.672;23.296;2022-09-21T13:36:06;3.20;;;2.90;;
35891;SDS011;21993;42.672;23.296;2022-09-21T13:44:04;3.63;;;3.00;;
35891;SDS011;21993;42.672;23.296;2022-09-21T13:52:18;2.20;;;2.10;;
35891;SDS011;21993;42.672;23.296;2022-09-21T13:57:35;4.77;;;2.73;;
35891;SDS011;21993;42.672;23.296;2022-09-21T14:08:00;6.90;;;3.57;;
35891;SDS011;21993;42.672;23.296;2022-09-21T14:10:26;2.90;;;2.47;;
35891;SDS011;21993;42.672;23.296;2022-09-21T14:12:56;3.10;;;2.73;;
35891;SDS011;21993;42.672;23.296;2022-09-21T14:23:32;3.50;;;2.70;;
35891;SDS011;21993;42.672;23.296;2022-09-21T14:25:58;2.53;;;2.33;;
35891;SDS011;21993;42.672;23.296;2022-09-21T14:28:40;2.90;;;2.60;;
35891;SDS011;21993;42.672;23.296;2022-09-21T14:31:25;3.17;;;2.87;;
35891;SDS011;21993;42.672;23.296;2022-09-21T14:33:56;5.73;;;3.30;;
35891;SDS011;21993;42.672;23.296;2022-09-21T14:36:30;2.17;;;1.97;;
35891;SDS011;21993;42.672;23.296;2022-09-21T14:39:02;2.23;;;2.00;;
35891;SDS011;21993;42.672;23.296;2022-09-21T14:41:31;5.87;;;2.50;;
35891;SDS011;21993;42.672;23.296;2022-09-21T14:44:02;4.57;;;2.73;;
35891;SDS011;21993;42.672;23.296;2022-09-21T14:52:09;3.17;;;2.63;;
35891;SDS011;21993;42.672;23.296;2022-09-21T15:15:36;5.43;;;3.50;;
35891;SDS011;21993;42.672;23.296;2022-09-21T15:18:16;4.87;;;3.17;;
35891;SDS011;21993;42.672;23.296;2022-09-21T15:20:52;5.80;;;3.90;;
35891;SDS011;21993;42.672;23.296;2022-09-21T15:23:25;3.60;;;3.30;;
35891;SDS011;21993;42.672;23.296;2022-09-21T15:26:13;11.33;;;5.43;;
35891;SDS011;21993;42.672;23.296;2022-09-21T15:28:46;5.27;;;3.23;;
35891;SDS011;21993;42.672;23.296;2022-09-21T15:31:14;5.47;;;3.40;;
35891;SDS011;21993;42.672;23.296;2022-09-21T15:33:41;5.23;;;3.47;;
35891;SDS011;21993;42.672;23.296;2022-09-21T15:36:10;3.60;;;3.30;;
35891;SDS011;21993;42.672;23.296;2022-09-21T15:38:37;6.00;;;3.43;;
35891;SDS011;21993;42.672;23.296;2022-09-21T15:41:03;5.17;;;3.50;;
35891;SDS011;21993;42.672;23.296;2022-09-21T15:43:30;4.70;;;3.77;;
35891;SDS011;21993;42.672;23.296;2022-09-21T15:48:27;4.23;;;3.77;;
35891;SDS011;21993;42.672;23.296;2022-09-21T15:51:17;3.10;;;2.80;;
35891;SDS011;21993;42.672;23.296;2022-09-21T15:53:54;4.77;;;3.27;;
35891;SDS011;21993;42.672;23.296;2022-09-21T15:56:30;3.80;;;3.00;;
35891;SDS011;21993;42.672;23.296;2022-09-21T15:59:01;3.97;;;3.23;;
35891;SDS011;21993;42.672;23.296;2022-09-21T16:01:36;3.67;;;2.87;;
35891;SDS011;21993;42.672;23.296;2022-09-21T16:04:12;3.93;;;2.60;;
35891;SDS011;21993;42.672;23.296;2022-09-21T16:06:46;3.10;;;2.53;;
35891;SDS011;21993;42.672;23.296;2022-09-21T16:11:47;3.20;;;2.90;;
35891;SDS011;21993;42.672;23.296;2022-09-21T16:14:14;3.90;;;2.90;;
35891;SDS011;21993;42.672;23.296;2022-09-21T16:22:10;3.23;;;2.73;;
35891;SDS011;21993;42.672;23.296;2022-09-21T16:24:43;7.50;;;3.30;;
35891;SDS011;21993;42.672;23.296;2022-09-21T16:27:12;5.83;;;3.60;;
35891;SDS011;21993;42.672;23.296;2022-09-21T16:29:42;4.87;;;3.87;;
35891;SDS011;21993;42.672;23.296;2022-09-21T16:37:41;5.47;;;3.93;;
35891;SDS011;21993;42.672;23.296;2022-09-21T16:40:08;6.87;;;4.37;;
35891;SDS011;21993;42.672;23.296;2022-09-21T16:42:33;6.47;;;3.93;;
35891;SDS011;21993;42.672;23.296;2022-09-21T16:44:59;5.70;;;3.70;;
35891;SDS011;21993;42.672;23.296;2022-09-21T16:47:25;5.93;;;4.17;;
35891;SDS011;21993;42.672;23.296;2022-09-21T16:49:58;5.80;;;4.67;;
35891;SDS011;21993;42.672;23.296;2022-09-21T16:52:27;11.17;;;6.70;;
35891;SDS011;21993;42.672;23.296;2022-09-21T16:54:54;6.10;;;4.93;;
35891;SDS011;21993;42.672;23.296;2022-09-21T16:57:21;7.70;;;5.70;;
35891;SDS011;21993;42.672;23.296;2022-09-21T16:59:47;6.27;;;4.90;;
35891;SDS011;21993;42.672;23.296;2022-09-21T17:02:14;7.27;;;5.90;;
35891;SDS011;21993;42.672;23.296;2022-09-21T17:04:41;9.33;;;6.00;;
35891;SDS011;21993;42.672;23.296;2022-09-21T17:07:13;8.33;;;5.00;;
35891;SDS011;21993;42.672;23.296;2022-09-21T17:09:41;15.87;;;9.23;;
35891;SDS011;21993;42.672;23.296;2022-09-21T17:12:11;8.13;;;5.43;;
35891;SDS011;21993;42.672;23.296;2022-09-21T17:14:38;6.60;;;5.23;;
35891;SDS011;21993;42.672;23.296;2022-09-21T17:17:11;7.93;;;5.13;;
35891;SDS011;21993;42.672;23.296;2022-09-21T17:19:42;9.90;;;5.43;;
35891;SDS011;21993;42.672;23.296;2022-09-21T17:22:10;7.20;;;4.90;;
35891;SDS011;21993;42.672;23.296;2022-09-21T17:24:41;8.60;;;5.67;;
35891;SDS011;21993;42.672;23.296;2022-09-21T17:27:09;7.50;;;5.37;;
35891;SDS011;21993;42.672;23.296;2022-09-21T17:29:36;6.40;;;5.50;;
35891;SDS011;21993;42.672;23.296;2022-09-21T17:32:05;8.50;;;5.83;;
35891;SDS011;21993;42.672;23.296;2022-09-21T17:34:34;12.10;;;5.27;;
35891;SDS011;21993;42.672;23.296;2022-09-21T17:37:00;7.70;;;5.30;;
35891;SDS011;21993;42.672;23.296;2022-09-21T17:39:25;7.37;;;5.60;;
35891;SDS011;21993;42.672;23.296;2022-09-21T17:49:47;6.03;;;5.07;;
35891;SDS011;21993;42.672;23.296;2022-09-21T17:52:14;5.60;;;5.00;;
35891;SDS011;21993;42.672;23.296;2022-09-21T17:55:03;6.50;;;4.90;;
35891;SDS011;21993;42.672;23.296;2022-09-21T18:02:47;8.37;;;5.00;;
35891;SDS011;21993;42.672;23.296;2022-09-21T18:05:20;5.50;;;4.93;;
35891;SDS011;21993;42.672;23.296;2022-09-21T18:07:51;5.90;;;4.80;;
35891;SDS011;21993;42.672;23.296;2022-09-21T18:10:20;6.63;;;5.47;;
35891;SDS011;21993;42.672;23.296;2022-09-21T18:21:04;9.17;;;6.00;;
35891;SDS011;21993;42.672;23.296;2022-09-21T18:26:36;6.70;;;5.30;;
35891;SDS011;21993;42.672;23.296;2022-09-21T18:29:03;6.80;;;5.20;;
35891;SDS011;21993;42.672;23.296;2022-09-21T18:36:41;5.57;;;4.73;;
35891;SDS011;21993;42.672;23.296;2022-09-21T18:45:28;7.27;;;5.47;;
35891;SDS011;21993;42.672;23.296;2022-09-21T18:50:49;7.20;;;5.87;;
35891;SDS011;21993;42.672;23.296;2022-09-21T18:53:23;8.27;;;6.27;;
35891;SDS011;21993;42.672;23.296;2022-09-21T18:55:57;7.47;;;6.13;;
35891;SDS011;21993;42.672;23.296;2022-09-21T18:58:24;9.03;;;6.90;;
35891;SDS011;21993;42.672;23.296;2022-09-21T19:00:50;8.40;;;6.50;;
35891;SDS011;21993;42.672;23.296;2022-09-21T19:03:16;7.80;;;6.37;;
35891;SDS011;21993;42.672;23.296;2022-09-21T19:05:45;11.00;;;6.20;;
35891;SDS011;21993;42.672;23.296;2022-09-21T19:18:59;5.93;;;5.10;;
35891;SDS011;21993;42.672;23.296;2022-09-21T19:26:44;6.80;;;5.90;;
35891;SDS011;21993;42.672;23.296;2022-09-21T19:29:19;6.77;;;5.80;;
35891;SDS011;21993;42.672;23.296;2022-09-21T19:31:50;10.40;;;6.80;;
35891;SDS011;21993;42.672;23.296;2022-09-21T19:34:16;7.30;;;6.27;;
35891;SDS011;21993;42.672;23.296;2022-09-21T19:36:43;7.37;;;6.57;;
35891;SDS011;21993;42.672;23.296;2022-09-21T19:39:11;10.13;;;7.30;;
35891;SDS011;21993;42.672;23.296;2022-09-21T19:41:42;8.27;;;6.40;;